EGPL Airport Information

Runway Information
Runway 06 Length 6024 ft width 151 ft Elevation 16 ft Threshold 394 ft Heading 55
Runway 24 Length 6024 ft Width 151 ft Elevation 13 ft Threshold N/A Heading 235
Runway 17 Length 4003 ft width 151 ft Elevation 18 ft Threshold N/A Heading 167
Runway 35 Length 4003 ft Width 151 ft Elevation 13 ft Threshold N/A Heading 347
Airport Frequencies
Type APP Name APP Frequency 119.2 MHZ
Type ATIS Name ATIS Frequency 113.95 MHZ
Type TWR Name TWR Frequency 119.2 MHZ
Airport Navaids
Type DME Name Benbecula Frequency 108100 KHZ
Type VOR-DME Name Benbecula Frequency 113950 KHZ
Airport Weather Information & NOTAM
ADDS - METARS form results

(1631 UTC 08 December 2022)
Data provider http://aviationweather.gov/metar/data/
 
METAR text: EGPL 081620Z 03015KT 9999 FEW014CB SCT040 03/01 Q1016
Conditions at: EGPL (BENBECULA ISLAND, GB) observed 1620 UTC 08 December 2022
Temperature: 3.0°C (37°F)
Dewpoint: 1.0°C (34°F) [RH = 87%]
Pressure (altimeter): 30.00 inches Hg (1016.0 mb)
Winds: from the NNE (30 degrees) at 17 MPH (15 knots; 7.7 m/s)
Visibility: 6 or more miles (10+ km)
Ceiling: at least 12,000 feet AGL
Clouds: few clouds at 1400 feet AGL
scattered clouds at 4000 feet AGL
Weather: no significant weather observed at this time

METAR text: EGPL 081550Z 01006KT 9999 FEW014CB SCT040 02/00 Q1015
Conditions at: EGPL (BENBECULA ISLAND, GB) observed 1550 UTC 08 December 2022
Temperature: 2.0°C (36°F)
Dewpoint: 0.0°C (32°F) [RH = 87%]
Pressure (altimeter): 29.97 inches Hg (1015.0 mb)
Winds: from the N (10 degrees) at 7 MPH (6 knots; 3.1 m/s)
Visibility: 6 or more miles (10+ km)
Ceiling: at least 12,000 feet AGL
Clouds: few clouds at 1400 feet AGL
scattered clouds at 4000 feet AGL
Weather: no significant weather observed at this time

Forecast for: EGPL (BENBECULA ISLAND, GB)
Text: TAF EGPL 081359Z 0815/0818 01009KT 9999 FEW015 SCT025
Forecast period: 1500 to 1800 UTC 08 December 2022
Forecast type: FROM: standard forecast or significant change
Winds: from the N (10 degrees) at 10 MPH (9 knots; 4.6 m/s)
Visibility: 6 or more miles (10+ km)
Ceiling: at least 12,000 feet AGL
Clouds: few clouds at 1500 feet AGL
scattered clouds at 2500 feet AGL
Weather: no significant weather forecast for this period
Text: PROB30
Forecast period: 1500 to 1800 UTC 08 December 2022
Forecast type: TEMPORARY: The following changes expected for less than half the time period
Winds: from the NNE (20 degrees) at 20 MPH (17 knots; 8.7 m/s)
gusting to 31 MPH (27 knots; 13.9 m/s)
Visibility: 4 miles (6 km)
Ceiling: 1000 feet AGL
Clouds: broken clouds at 1000 feet AGL
Weather: SHRA -SHRA -SHSN  (rain showers, light rain showers, light snow showers)